sensor_id;sensor_type;location;lat;lon;timestamp;P1;durP1;ratioP1;P2;durP2;ratioP2
59972;SDS011;55298;-36.624;-64.282;2022-11-20T00:01:32;5.10;;;4.50;;
59972;SDS011;55298;-36.624;-64.282;2022-11-20T00:03:59;5.70;;;3.90;;
59972;SDS011;55298;-36.624;-64.282;2022-11-20T00:06:31;6.18;;;4.13;;
59972;SDS011;55298;-36.624;-64.282;2022-11-20T00:08:59;7.28;;;4.20;;
59972;SDS011;55298;-36.624;-64.282;2022-11-20T00:11:29;5.40;;;4.22;;
59972;SDS011;55298;-36.624;-64.282;2022-11-20T00:13:58;10.70;;;8.80;;
59972;SDS011;55298;-36.624;-64.282;2022-11-20T00:16:30;7.55;;;5.97;;
59972;SDS011;55298;-36.624;-64.282;2022-11-20T00:19:02;5.55;;;5.05;;
59972;SDS011;55298;-36.624;-64.282;2022-11-20T00:21:31;12.70;;;11.25;;
59972;SDS011;55298;-36.624;-64.282;2022-11-20T00:24:00;6.63;;;5.10;;
59972;SDS011;55298;-36.624;-64.282;2022-11-20T00:26:29;5.30;;;4.30;;
59972;SDS011;55298;-36.624;-64.282;2022-11-20T00:28:59;9.82;;;6.15;;
59972;SDS011;55298;-36.624;-64.282;2022-11-20T00:31:28;8.73;;;5.18;;
59972;SDS011;55298;-36.624;-64.282;2022-11-20T00:33:58;6.18;;;4.55;;
59972;SDS011;55298;-36.624;-64.282;2022-11-20T00:36:27;7.68;;;4.43;;
59972;SDS011;55298;-36.624;-64.282;2022-11-20T00:38:56;7.40;;;4.18;;
59972;SDS011;55298;-36.624;-64.282;2022-11-20T00:41:26;7.75;;;4.43;;
59972;SDS011;55298;-36.624;-64.282;2022-11-20T00:43:55;9.07;;;4.10;;
59972;SDS011;55298;-36.624;-64.282;2022-11-20T00:46:25;8.13;;;5.93;;
59972;SDS011;55298;-36.624;-64.282;2022-11-20T00:48:55;7.45;;;4.63;;
59972;SDS011;55298;-36.624;-64.282;2022-11-20T00:51:25;12.85;;;9.65;;
59972;SDS011;55298;-36.624;-64.282;2022-11-20T00:53:55;9.82;;;7.38;;
59972;SDS011;55298;-36.624;-64.282;2022-11-20T00:56:23;8.13;;;5.20;;
59972;SDS011;55298;-36.624;-64.282;2022-11-20T00:58:51;8.25;;;5.60;;
59972;SDS011;55298;-36.624;-64.282;2022-11-20T01:01:20;8.38;;;5.18;;
59972;SDS011;55298;-36.624;-64.282;2022-11-20T01:03:50;9.32;;;5.88;;
59972;SDS011;55298;-36.624;-64.282;2022-11-20T01:06:22;11.88;;;8.63;;
59972;SDS011;55298;-36.624;-64.282;2022-11-20T01:08:58;9.05;;;6.88;;
59972;SDS011;55298;-36.624;-64.282;2022-11-20T01:11:27;9.27;;;8.05;;
59972;SDS011;55298;-36.624;-64.282;2022-11-20T01:13:58;11.18;;;8.35;;
59972;SDS011;55298;-36.624;-64.282;2022-11-20T01:16:29;14.05;;;7.47;;
59972;SDS011;55298;-36.624;-64.282;2022-11-20T01:18:59;6.07;;;4.80;;
59972;SDS011;55298;-36.624;-64.282;2022-11-20T01:21:29;7.05;;;4.90;;
59972;SDS011;55298;-36.624;-64.282;2022-11-20T01:23:59;6.20;;;5.15;;
59972;SDS011;55298;-36.624;-64.282;2022-11-20T01:26:29;12.73;;;8.35;;
59972;SDS011;55298;-36.624;-64.282;2022-11-20T01:29:00;16.45;;;11.85;;
59972;SDS011;55298;-36.624;-64.282;2022-11-20T01:31:32;12.40;;;11.13;;
59972;SDS011;55298;-36.624;-64.282;2022-11-20T01:34:04;12.75;;;9.50;;
59972;SDS011;55298;-36.624;-64.282;2022-11-20T01:36:36;9.70;;;7.65;;
59972;SDS011;55298;-36.624;-64.282;2022-11-20T01:39:06;9.70;;;6.00;;
59972;SDS011;55298;-36.624;-64.282;2022-11-20T01:41:36;6.13;;;5.50;;
59972;SDS011;55298;-36.624;-64.282;2022-11-20T01:44:15;9.75;;;6.05;;
59972;SDS011;55298;-36.624;-64.282;2022-11-20T01:49:28;6.45;;;5.30;;
59972;SDS011;55298;-36.624;-64.282;2022-11-20T01:52:07;6.85;;;5.07;;
59972;SDS011;55298;-36.624;-64.282;2022-11-20T01:54:50;4.63;;;4.20;;
59972;SDS011;55298;-36.624;-64.282;2022-11-20T01:57:24;12.15;;;6.38;;
59972;SDS011;55298;-36.624;-64.282;2022-11-20T01:59:57;36.60;;;7.32;;
59972;SDS011;55298;-36.624;-64.282;2022-11-20T02:02:29;18.95;;;3.33;;
59972;SDS011;55298;-36.624;-64.282;2022-11-20T02:05:00;7.93;;;2.67;;
59972;SDS011;55298;-36.624;-64.282;2022-11-20T02:07:36;32.97;;;4.07;;
59972;SDS011;55298;-36.624;-64.282;2022-11-20T02:10:05;20.45;;;3.58;;
59972;SDS011;55298;-36.624;-64.282;2022-11-20T02:15:55;14.05;;;2.17;;
59972;SDS011;55298;-36.624;-64.282;2022-11-20T02:18:25;11.80;;;2.28;;
59972;SDS011;55298;-36.624;-64.282;2022-11-20T02:20:54;5.78;;;2.13;;
59972;SDS011;55298;-36.624;-64.282;2022-11-20T02:23:38;10.77;;;2.97;;
59972;SDS011;55298;-36.624;-64.282;2022-11-20T02:26:12;9.95;;;2.90;;
59972;SDS011;55298;-36.624;-64.282;2022-11-20T02:28:43;12.43;;;2.58;;
59972;SDS011;55298;-36.624;-64.282;2022-11-20T02:31:10;9.55;;;3.17;;
59972;SDS011;55298;-36.624;-64.282;2022-11-20T02:33:40;3.92;;;2.50;;
59972;SDS011;55298;-36.624;-64.282;2022-11-20T02:36:08;12.88;;;2.95;;
59972;SDS011;55298;-36.624;-64.282;2022-11-20T02:38:42;10.02;;;2.83;;
59972;SDS011;55298;-36.624;-64.282;2022-11-20T02:41:10;9.18;;;3.25;;
59972;SDS011;55298;-36.624;-64.282;2022-11-20T02:43:39;7.10;;;3.05;;
59972;SDS011;55298;-36.624;-64.282;2022-11-20T02:46:07;10.70;;;3.25;;
59972;SDS011;55298;-36.624;-64.282;2022-11-20T02:48:36;7.88;;;3.58;;
59972;SDS011;55298;-36.624;-64.282;2022-11-20T02:51:05;5.20;;;3.28;;
59972;SDS011;55298;-36.624;-64.282;2022-11-20T02:53:32;3.88;;;2.58;;
59972;SDS011;55298;-36.624;-64.282;2022-11-20T02:56:20;4.65;;;2.85;;
59972;SDS011;55298;-36.624;-64.282;2022-11-20T02:58:49;6.10;;;3.78;;
59972;SDS011;55298;-36.624;-64.282;2022-11-20T03:01:19;7.88;;;3.22;;
59972;SDS011;55298;-36.624;-64.282;2022-11-20T03:03:47;3.65;;;3.00;;
59972;SDS011;55298;-36.624;-64.282;2022-11-20T03:06:16;4.75;;;2.63;;
59972;SDS011;55298;-36.624;-64.282;2022-11-20T03:08:43;3.17;;;2.65;;
59972;SDS011;55298;-36.624;-64.282;2022-11-20T03:11:11;5.45;;;3.03;;
59972;SDS011;55298;-36.624;-64.282;2022-11-20T03:13:39;3.05;;;2.75;;
59972;SDS011;55298;-36.624;-64.282;2022-11-20T03:16:09;6.38;;;2.78;;
59972;SDS011;55298;-36.624;-64.282;2022-11-20T03:18:42;3.80;;;2.70;;
59972;SDS011;55298;-36.624;-64.282;2022-11-20T03:21:11;4.07;;;2.85;;
59972;SDS011;55298;-36.624;-64.282;2022-11-20T03:23:40;3.38;;;2.85;;
59972;SDS011;55298;-36.624;-64.282;2022-11-20T03:26:10;7.50;;;7.20;;
59972;SDS011;55298;-36.624;-64.282;2022-11-20T03:28:42;3.45;;;3.15;;
59972;SDS011;55298;-36.624;-64.282;2022-11-20T03:31:15;3.40;;;3.10;;
59972;SDS011;55298;-36.624;-64.282;2022-11-20T03:33:45;3.88;;;2.75;;
59972;SDS011;55298;-36.624;-64.282;2022-11-20T03:36:13;2.95;;;2.60;;
59972;SDS011;55298;-36.624;-64.282;2022-11-20T03:38:42;2.88;;;2.67;;
59972;SDS011;55298;-36.624;-64.282;2022-11-20T03:41:12;2.63;;;2.42;;
59972;SDS011;55298;-36.624;-64.282;2022-11-20T03:43:41;3.83;;;2.97;;
59972;SDS011;55298;-36.624;-64.282;2022-11-20T03:46:14;3.03;;;2.83;;
59972;SDS011;55298;-36.624;-64.282;2022-11-20T03:48:41;3.38;;;3.03;;
59972;SDS011;55298;-36.624;-64.282;2022-11-20T03:51:17;3.53;;;2.90;;
59972;SDS011;55298;-36.624;-64.282;2022-11-20T03:53:47;4.95;;;2.95;;
59972;SDS011;55298;-36.624;-64.282;2022-11-20T03:56:18;3.22;;;2.92;;
59972;SDS011;55298;-36.624;-64.282;2022-11-20T03:58:50;3.42;;;2.92;;
59972;SDS011;55298;-36.624;-64.282;2022-11-20T04:01:20;3.50;;;2.58;;
59972;SDS011;55298;-36.624;-64.282;2022-11-20T04:03:49;2.97;;;2.78;;
59972;SDS011;55298;-36.624;-64.282;2022-11-20T04:06:21;2.88;;;2.45;;
59972;SDS011;55298;-36.624;-64.282;2022-11-20T04:08:50;2.80;;;2.60;;
59972;SDS011;55298;-36.624;-64.282;2022-11-20T04:11:21;2.85;;;2.65;;
59972;SDS011;55298;-36.624;-64.282;2022-11-20T04:13:52;2.97;;;2.75;;
59972;SDS011;55298;-36.624;-64.282;2022-11-20T04:16:23;3.05;;;2.80;;
59972;SDS011;55298;-36.624;-64.282;2022-11-20T04:18:53;3.05;;;2.80;;
59972;SDS011;55298;-36.624;-64.282;2022-11-20T04:21:24;3.72;;;2.90;;
59972;SDS011;55298;-36.624;-64.282;2022-11-20T04:23:52;3.33;;;3.03;;
59972;SDS011;55298;-36.624;-64.282;2022-11-20T04:26:21;2.80;;;2.60;;
59972;SDS011;55298;-36.624;-64.282;2022-11-20T04:28:50;2.83;;;2.63;;
59972;SDS011;55298;-36.624;-64.282;2022-11-20T04:31:21;4.00;;;3.00;;
59972;SDS011;55298;-36.624;-64.282;2022-11-20T04:33:51;3.03;;;2.70;;
59972;SDS011;55298;-36.624;-64.282;2022-11-20T04:36:23;2.90;;;2.70;;
59972;SDS011;55298;-36.624;-64.282;2022-11-20T04:38:56;2.65;;;2.45;;
59972;SDS011;55298;-36.624;-64.282;2022-11-20T04:41:28;3.40;;;2.80;;
59972;SDS011;55298;-36.624;-64.282;2022-11-20T04:43:59;2.90;;;2.70;;
59972;SDS011;55298;-36.624;-64.282;2022-11-20T04:46:30;4.97;;;3.25;;
59972;SDS011;55298;-36.624;-64.282;2022-11-20T04:49:07;2.92;;;2.70;;
59972;SDS011;55298;-36.624;-64.282;2022-11-20T04:51:35;3.72;;;3.13;;
59972;SDS011;55298;-36.624;-64.282;2022-11-20T04:54:02;3.47;;;3.20;;
59972;SDS011;55298;-36.624;-64.282;2022-11-20T04:56:30;3.25;;;3.03;;
59972;SDS011;55298;-36.624;-64.282;2022-11-20T04:59:00;4.28;;;3.03;;
59972;SDS011;55298;-36.624;-64.282;2022-11-20T05:01:28;2.90;;;2.70;;
59972;SDS011;55298;-36.624;-64.282;2022-11-20T05:03:58;3.20;;;2.90;;
59972;SDS011;55298;-36.624;-64.282;2022-11-20T05:06:26;3.88;;;3.08;;
59972;SDS011;55298;-36.624;-64.282;2022-11-20T05:08:55;3.05;;;2.78;;
59972;SDS011;55298;-36.624;-64.282;2022-11-20T05:11:22;3.00;;;2.70;;
59972;SDS011;55298;-36.624;-64.282;2022-11-20T05:13:54;3.13;;;2.83;;
59972;SDS011;55298;-36.624;-64.282;2022-11-20T05:16:25;3.38;;;3.03;;
59972;SDS011;55298;-36.624;-64.282;2022-11-20T05:18:53;3.00;;;2.80;;
59972;SDS011;55298;-36.624;-64.282;2022-11-20T05:21:24;4.95;;;3.42;;
59972;SDS011;55298;-36.624;-64.282;2022-11-20T05:23:51;3.28;;;2.90;;
59972;SDS011;55298;-36.624;-64.282;2022-11-20T05:26:20;3.85;;;3.55;;
59972;SDS011;55298;-36.624;-64.282;2022-11-20T05:28:49;4.05;;;3.03;;
59972;SDS011;55298;-36.624;-64.282;2022-11-20T05:31:19;3.80;;;3.33;;
59972;SDS011;55298;-36.624;-64.282;2022-11-20T05:33:50;5.97;;;2.85;;
59972;SDS011;55298;-36.624;-64.282;2022-11-20T05:36:17;3.45;;;3.15;;
59972;SDS011;55298;-36.624;-64.282;2022-11-20T05:38:46;4.13;;;3.10;;
59972;SDS011;55298;-36.624;-64.282;2022-11-20T05:41:14;3.22;;;2.92;;
59972;SDS011;55298;-36.624;-64.282;2022-11-20T05:43:45;2.88;;;2.50;;
59972;SDS011;55298;-36.624;-64.282;2022-11-20T05:46:14;2.90;;;2.70;;
59972;SDS011;55298;-36.624;-64.282;2022-11-20T05:48:45;3.38;;;2.63;;
59972;SDS011;55298;-36.624;-64.282;2022-11-20T05:51:14;4.38;;;3.97;;
59972;SDS011;55298;-36.624;-64.282;2022-11-20T05:53:44;3.17;;;2.70;;
59972;SDS011;55298;-36.624;-64.282;2022-11-20T05:56:12;3.55;;;2.70;;
59972;SDS011;55298;-36.624;-64.282;2022-11-20T05:58:45;3.50;;;2.70;;
59972;SDS011;55298;-36.624;-64.282;2022-11-20T06:01:22;3.03;;;2.70;;
59972;SDS011;55298;-36.624;-64.282;2022-11-20T06:03:52;3.47;;;2.88;;
59972;SDS011;55298;-36.624;-64.282;2022-11-20T06:06:20;2.78;;;2.58;;
59972;SDS011;55298;-36.624;-64.282;2022-11-20T06:08:48;3.10;;;2.38;;
59972;SDS011;55298;-36.624;-64.282;2022-11-20T06:11:16;3.78;;;2.45;;
59972;SDS011;55298;-36.624;-64.282;2022-11-20T06:13:44;2.40;;;2.30;;
59972;SDS011;55298;-36.624;-64.282;2022-11-20T06:16:13;2.63;;;2.42;;
59972;SDS011;55298;-36.624;-64.282;2022-11-20T06:18:43;2.60;;;2.50;;
59972;SDS011;55298;-36.624;-64.282;2022-11-20T06:21:13;3.58;;;2.67;;
59972;SDS011;55298;-36.624;-64.282;2022-11-20T06:23:43;3.00;;;2.80;;
59972;SDS011;55298;-36.624;-64.282;2022-11-20T06:26:15;2.90;;;2.70;;
59972;SDS011;55298;-36.624;-64.282;2022-11-20T06:28:47;2.97;;;2.88;;
59972;SDS011;55298;-36.624;-64.282;2022-11-20T06:31:15;2.90;;;2.65;;
59972;SDS011;55298;-36.624;-64.282;2022-11-20T06:33:44;2.65;;;2.45;;
59972;SDS011;55298;-36.624;-64.282;2022-11-20T06:36:14;2.85;;;2.65;;
59972;SDS011;55298;-36.624;-64.282;2022-11-20T06:38:45;3.10;;;2.90;;
59972;SDS011;55298;-36.624;-64.282;2022-11-20T06:41:14;3.20;;;3.00;;
59972;SDS011;55298;-36.624;-64.282;2022-11-20T06:43:43;3.50;;;3.30;;
59972;SDS011;55298;-36.624;-64.282;2022-11-20T06:46:11;2.90;;;2.70;;
59972;SDS011;55298;-36.624;-64.282;2022-11-20T06:48:43;3.10;;;2.90;;
59972;SDS011;55298;-36.624;-64.282;2022-11-20T06:51:11;2.80;;;2.70;;
59972;SDS011;55298;-36.624;-64.282;2022-11-20T06:53:40;2.67;;;2.53;;
59972;SDS011;55298;-36.624;-64.282;2022-11-20T06:56:07;3.50;;;3.05;;
59972;SDS011;55298;-36.624;-64.282;2022-11-20T06:58:35;3.42;;;3.15;;
59972;SDS011;55298;-36.624;-64.282;2022-11-20T07:01:04;3.72;;;3.00;;
59972;SDS011;55298;-36.624;-64.282;2022-11-20T07:03:35;3.30;;;3.10;;
59972;SDS011;55298;-36.624;-64.282;2022-11-20T07:06:05;3.20;;;3.00;;
59972;SDS011;55298;-36.624;-64.282;2022-11-20T07:08:33;2.50;;;2.40;;
59972;SDS011;55298;-36.624;-64.282;2022-11-20T07:11:02;3.05;;;2.85;;
59972;SDS011;55298;-36.624;-64.282;2022-11-20T07:13:33;3.30;;;3.10;;
59972;SDS011;55298;-36.624;-64.282;2022-11-20T07:16:01;3.17;;;2.80;;
59972;SDS011;55298;-36.624;-64.282;2022-11-20T07:18:32;3.00;;;2.80;;
59972;SDS011;55298;-36.624;-64.282;2022-11-20T07:21:03;3.10;;;2.90;;
59972;SDS011;55298;-36.624;-64.282;2022-11-20T07:23:34;2.85;;;2.65;;
59972;SDS011;55298;-36.624;-64.282;2022-11-20T07:26:02;3.13;;;2.92;;
59972;SDS011;55298;-36.624;-64.282;2022-11-20T07:28:33;3.92;;;3.10;;
59972;SDS011;55298;-36.624;-64.282;2022-11-20T07:31:02;3.30;;;3.10;;
59972;SDS011;55298;-36.624;-64.282;2022-11-20T07:33:30;3.28;;;3.05;;
59972;SDS011;55298;-36.624;-64.282;2022-11-20T07:35:59;2.70;;;2.50;;
59972;SDS011;55298;-36.624;-64.282;2022-11-20T07:38:27;3.45;;;2.83;;
59972;SDS011;55298;-36.624;-64.282;2022-11-20T07:40:56;3.15;;;2.60;;
59972;SDS011;55298;-36.624;-64.282;2022-11-20T07:43:26;3.47;;;3.17;;
59972;SDS011;55298;-36.624;-64.282;2022-11-20T07:45:55;2.90;;;2.70;;
59972;SDS011;55298;-36.624;-64.282;2022-11-20T07:48:25;3.20;;;2.90;;
59972;SDS011;55298;-36.624;-64.282;2022-11-20T07:50:53;3.00;;;2.90;;
59972;SDS011;55298;-36.624;-64.282;2022-11-20T07:53:22;3.38;;;3.08;;
59972;SDS011;55298;-36.624;-64.282;2022-11-20T07:55:49;3.03;;;2.80;;
59972;SDS011;55298;-36.624;-64.282;2022-11-20T07:58:18;3.85;;;2.83;;
59972;SDS011;55298;-36.624;-64.282;2022-11-20T08:00:46;3.13;;;2.83;;
59972;SDS011;55298;-36.624;-64.282;2022-11-20T08:03:15;3.25;;;3.00;;
59972;SDS011;55298;-36.624;-64.282;2022-11-20T08:05:43;3.30;;;3.00;;
59972;SDS011;55298;-36.624;-64.282;2022-11-20T08:08:10;3.72;;;3.08;;
59972;SDS011;55298;-36.624;-64.282;2022-11-20T08:10:38;2.92;;;2.70;;
59972;SDS011;55298;-36.624;-64.282;2022-11-20T08:13:08;3.03;;;2.83;;
59972;SDS011;55298;-36.624;-64.282;2022-11-20T08:15:50;3.08;;;2.85;;
59972;SDS011;55298;-36.624;-64.282;2022-11-20T08:18:27;3.38;;;3.17;;
59972;SDS011;55298;-36.624;-64.282;2022-11-20T08:20:54;4.80;;;2.92;;
59972;SDS011;55298;-36.624;-64.282;2022-11-20T08:23:23;3.00;;;2.80;;
59972;SDS011;55298;-36.624;-64.282;2022-11-20T08:25:52;3.20;;;2.90;;
59972;SDS011;55298;-36.624;-64.282;2022-11-20T08:28:19;3.03;;;2.75;;
59972;SDS011;55298;-36.624;-64.282;2022-11-20T08:30:48;2.95;;;2.65;;
59972;SDS011;55298;-36.624;-64.282;2022-11-20T08:33:15;2.95;;;2.80;;
59972;SDS011;55298;-36.624;-64.282;2022-11-20T08:35:43;3.00;;;2.80;;
59972;SDS011;55298;-36.624;-64.282;2022-11-20T08:38:10;3.05;;;2.85;;
59972;SDS011;55298;-36.624;-64.282;2022-11-20T08:40:39;3.45;;;3.22;;
59972;SDS011;55298;-36.624;-64.282;2022-11-20T08:43:06;3.05;;;2.85;;
59972;SDS011;55298;-36.624;-64.282;2022-11-20T08:45:35;2.97;;;2.78;;
59972;SDS011;55298;-36.624;-64.282;2022-11-20T08:48:02;3.22;;;3.03;;
59972;SDS011;55298;-36.624;-64.282;2022-11-20T08:50:31;3.05;;;2.85;;
59972;SDS011;55298;-36.624;-64.282;2022-11-20T08:53:03;2.75;;;2.65;;
59972;SDS011;55298;-36.624;-64.282;2022-11-20T08:55:31;3.17;;;2.90;;
59972;SDS011;55298;-36.624;-64.282;2022-11-20T08:58:04;2.97;;;2.70;;
59972;SDS011;55298;-36.624;-64.282;2022-11-20T09:00:34;3.45;;;2.83;;
59972;SDS011;55298;-36.624;-64.282;2022-11-20T09:03:01;3.00;;;2.80;;
59972;SDS011;55298;-36.624;-64.282;2022-11-20T09:05:30;3.38;;;3.10;;
59972;SDS011;55298;-36.624;-64.282;2022-11-20T09:07:58;3.17;;;2.97;;
59972;SDS011;55298;-36.624;-64.282;2022-11-20T09:10:26;3.40;;;3.20;;
59972;SDS011;55298;-36.624;-64.282;2022-11-20T09:12:54;3.75;;;3.45;;
59972;SDS011;55298;-36.624;-64.282;2022-11-20T09:15:24;3.30;;;3.00;;
59972;SDS011;55298;-36.624;-64.282;2022-11-20T09:17:56;3.40;;;3.17;;
59972;SDS011;55298;-36.624;-64.282;2022-11-20T09:20:25;2.90;;;2.70;;
59972;SDS011;55298;-36.624;-64.282;2022-11-20T09:22:54;3.10;;;2.90;;
59972;SDS011;55298;-36.624;-64.282;2022-11-20T09:25:24;3.40;;;3.10;;
59972;SDS011;55298;-36.624;-64.282;2022-11-20T09:27:59;2.83;;;2.63;;
59972;SDS011;55298;-36.624;-64.282;2022-11-20T09:30:29;3.22;;;2.88;;
59972;SDS011;55298;-36.624;-64.282;2022-11-20T09:32:56;3.53;;;3.33;;
59972;SDS011;55298;-36.624;-64.282;2022-11-20T09:35:24;3.00;;;2.80;;
59972;SDS011;55298;-36.624;-64.282;2022-11-20T09:37:52;3.30;;;3.00;;
59972;SDS011;55298;-36.624;-64.282;2022-11-20T09:40:22;3.45;;;3.25;;
59972;SDS011;55298;-36.624;-64.282;2022-11-20T09:43:01;3.67;;;2.60;;
59972;SDS011;55298;-36.624;-64.282;2022-11-20T09:45:49;3.00;;;2.80;;
59972;SDS011;55298;-36.624;-64.282;2022-11-20T09:48:42;2.72;;;2.63;;
59972;SDS011;55298;-36.624;-64.282;2022-11-20T09:51:31;2.78;;;2.58;;
59972;SDS011;55298;-36.624;-64.282;2022-11-20T09:54:21;3.08;;;2.40;;
59972;SDS011;55298;-36.624;-64.282;2022-11-20T09:56:55;2.85;;;2.65;;
59972;SDS011;55298;-36.624;-64.282;2022-11-20T09:59:34;2.92;;;2.78;;
59972;SDS011;55298;-36.624;-64.282;2022-11-20T10:05:06;3.47;;;2.55;;
59972;SDS011;55298;-36.624;-64.282;2022-11-20T10:07:56;3.03;;;2.42;;
59972;SDS011;55298;-36.624;-64.282;2022-11-20T10:11:10;2.20;;;2.10;;
59972;SDS011;55298;-36.624;-64.282;2022-11-20T10:22:21;3.05;;;2.47;;
59972;SDS011;55298;-36.624;-64.282;2022-11-20T10:27:59;3.60;;;2.33;;
59972;SDS011;55298;-36.624;-64.282;2022-11-20T10:30:44;4.50;;;2.50;;
59972;SDS011;55298;-36.624;-64.282;2022-11-20T10:33:21;2.97;;;2.60;;
59972;SDS011;55298;-36.624;-64.282;2022-11-20T10:36:02;4.30;;;2.47;;
59972;SDS011;55298;-36.624;-64.282;2022-11-20T10:38:38;4.10;;;2.70;;
59972;SDS011;55298;-36.624;-64.282;2022-11-20T10:41:17;3.80;;;2.40;;
59972;SDS011;55298;-36.624;-64.282;2022-11-20T10:43:53;6.15;;;2.83;;
59972;SDS011;55298;-36.624;-64.282;2022-11-20T10:46:40;4.10;;;2.40;;
59972;SDS011;55298;-36.624;-64.282;2022-11-20T10:49:13;6.32;;;2.88;;
59972;SDS011;55298;-36.624;-64.282;2022-11-20T10:51:49;4.85;;;2.70;;
59972;SDS011;55298;-36.624;-64.282;2022-11-20T11:00:14;2.70;;;2.03;;
59972;SDS011;55298;-36.624;-64.282;2022-11-20T11:02:45;3.67;;;2.33;;
59972;SDS011;55298;-36.624;-64.282;2022-11-20T11:05:18;2.25;;;2.05;;
59972;SDS011;55298;-36.624;-64.282;2022-11-20T11:07:58;4.63;;;2.30;;
59972;SDS011;55298;-36.624;-64.282;2022-11-20T11:15:49;4.05;;;2.15;;
59972;SDS011;55298;-36.624;-64.282;2022-11-20T11:18:31;2.83;;;1.83;;
59972;SDS011;55298;-36.624;-64.282;2022-11-20T11:21:03;2.35;;;1.80;;
59972;SDS011;55298;-36.624;-64.282;2022-11-20T11:23:34;3.70;;;2.10;;
59972;SDS011;55298;-36.624;-64.282;2022-11-20T11:26:18;3.10;;;1.80;;
59972;SDS011;55298;-36.624;-64.282;2022-11-20T11:28:55;2.85;;;2.20;;
59972;SDS011;55298;-36.624;-64.282;2022-11-20T11:31:27;4.50;;;2.58;;
59972;SDS011;55298;-36.624;-64.282;2022-11-20T11:34:04;5.97;;;2.42;;
59972;SDS011;55298;-36.624;-64.282;2022-11-20T11:36:36;5.57;;;2.30;;
59972;SDS011;55298;-36.624;-64.282;2022-11-20T11:39:05;4.18;;;2.50;;
59972;SDS011;55298;-36.624;-64.282;2022-11-20T11:41:40;4.45;;;2.20;;
59972;SDS011;55298;-36.624;-64.282;2022-11-20T11:44:28;6.18;;;2.40;;
59972;SDS011;55298;-36.624;-64.282;2022-11-20T11:47:11;7.90;;;3.17;;
59972;SDS011;55298;-36.624;-64.282;2022-11-20T11:49:48;5.03;;;2.90;;
59972;SDS011;55298;-36.624;-64.282;2022-11-20T11:52:26;6.70;;;2.60;;
59972;SDS011;55298;-36.624;-64.282;2022-11-20T11:54:57;8.13;;;2.55;;
59972;SDS011;55298;-36.624;-64.282;2022-11-20T12:00:24;4.30;;;2.50;;
59972;SDS011;55298;-36.624;-64.282;2022-11-20T12:03:42;6.63;;;2.65;;
59972;SDS011;55298;-36.624;-64.282;2022-11-20T12:06:05;4.65;;;2.30;;
59972;SDS011;55298;-36.624;-64.282;2022-11-20T12:11:33;4.97;;;2.50;;
59972;SDS011;55298;-36.624;-64.282;2022-11-20T12:14:18;8.25;;;2.65;;
59972;SDS011;55298;-36.624;-64.282;2022-11-20T12:16:57;6.15;;;2.25;;
59972;SDS011;55298;-36.624;-64.282;2022-11-20T12:19:26;4.95;;;2.40;;
59972;SDS011;55298;-36.624;-64.282;2022-11-20T12:30:18;10.02;;;2.47;;
59972;SDS011;55298;-36.624;-64.282;2022-11-20T12:42:02;10.25;;;2.55;;
59972;SDS011;55298;-36.624;-64.282;2022-11-20T12:44:59;3.83;;;2.03;;
59972;SDS011;55298;-36.624;-64.282;2022-11-20T12:47:54;5.20;;;2.17;;
59972;SDS011;55298;-36.624;-64.282;2022-11-20T12:50:32;6.43;;;2.28;;
59972;SDS011;55298;-36.624;-64.282;2022-11-20T13:01:56;8.30;;;3.30;;
59972;SDS011;55298;-36.624;-64.282;2022-11-20T13:04:48;4.72;;;2.20;;
59972;SDS011;55298;-36.624;-64.282;2022-11-20T13:07:28;4.63;;;2.33;;
59972;SDS011;55298;-36.624;-64.282;2022-11-20T13:09:59;4.95;;;2.28;;
59972;SDS011;55298;-36.624;-64.282;2022-11-20T13:12:31;4.75;;;2.35;;
59972;SDS011;55298;-36.624;-64.282;2022-11-20T13:15:33;4.90;;;2.47;;
59972;SDS011;55298;-36.624;-64.282;2022-11-20T13:18:08;4.03;;;2.42;;
59972;SDS011;55298;-36.624;-64.282;2022-11-20T13:20:43;7.30;;;2.38;;
59972;SDS011;55298;-36.624;-64.282;2022-11-20T13:23:25;3.13;;;2.00;;
59972;SDS011;55298;-36.624;-64.282;2022-11-20T13:28:40;3.85;;;1.88;;
59972;SDS011;55298;-36.624;-64.282;2022-11-20T13:31:22;3.58;;;1.73;;
59972;SDS011;55298;-36.624;-64.282;2022-11-20T13:33:54;2.88;;;1.85;;
59972;SDS011;55298;-36.624;-64.282;2022-11-20T13:36:25;4.10;;;1.88;;
59972;SDS011;55298;-36.624;-64.282;2022-11-20T13:41:32;5.30;;;2.00;;
59972;SDS011;55298;-36.624;-64.282;2022-11-20T13:44:14;3.13;;;1.80;;
59972;SDS011;55298;-36.624;-64.282;2022-11-20T13:47:03;4.47;;;2.10;;
59972;SDS011;55298;-36.624;-64.282;2022-11-20T13:49:45;4.73;;;1.87;;
59972;SDS011;55298;-36.624;-64.282;2022-11-20T13:52:23;1.80;;;1.42;;
59972;SDS011;55298;-36.624;-64.282;2022-11-20T13:55:10;5.88;;;1.80;;
59972;SDS011;55298;-36.624;-64.282;2022-11-20T13:58:04;3.67;;;1.70;;
59972;SDS011;55298;-36.624;-64.282;2022-11-20T14:01:00;3.75;;;1.85;;
59972;SDS011;55298;-36.624;-64.282;2022-11-20T14:03:43;2.28;;;1.60;;
59972;SDS011;55298;-36.624;-64.282;2022-11-20T14:06:25;3.83;;;1.90;;
59972;SDS011;55298;-36.624;-64.282;2022-11-20T14:08:57;3.03;;;2.00;;
59972;SDS011;55298;-36.624;-64.282;2022-11-20T14:11:26;3.85;;;1.98;;
59972;SDS011;55298;-36.624;-64.282;2022-11-20T14:16:41;4.10;;;1.90;;
59972;SDS011;55298;-36.624;-64.282;2022-11-20T14:19:21;2.05;;;1.23;;
59972;SDS011;55298;-36.624;-64.282;2022-11-20T14:22:05;3.03;;;1.45;;
59972;SDS011;55298;-36.624;-64.282;2022-11-20T14:24:44;2.70;;;1.80;;
59972;SDS011;55298;-36.624;-64.282;2022-11-20T14:27:14;3.45;;;1.65;;
59972;SDS011;55298;-36.624;-64.282;2022-11-20T14:29:48;1.98;;;1.63;;
59972;SDS011;55298;-36.624;-64.282;2022-11-20T14:32:17;2.28;;;1.50;;
59972;SDS011;55298;-36.624;-64.282;2022-11-20T14:34:48;2.90;;;1.52;;
59972;SDS011;55298;-36.624;-64.282;2022-11-20T14:37:20;5.05;;;1.98;;
59972;SDS011;55298;-36.624;-64.282;2022-11-20T14:39:53;3.15;;;2.10;;
59972;SDS011;55298;-36.624;-64.282;2022-11-20T14:42:26;3.03;;;1.80;;
59972;SDS011;55298;-36.624;-64.282;2022-11-20T14:44:57;3.13;;;1.90;;
59972;SDS011;55298;-36.624;-64.282;2022-11-20T14:47:29;3.97;;;2.00;;
59972;SDS011;55298;-36.624;-64.282;2022-11-20T14:49:58;3.10;;;1.80;;
59972;SDS011;55298;-36.624;-64.282;2022-11-20T14:52:28;2.10;;;1.70;;
59972;SDS011;55298;-36.624;-64.282;2022-11-20T14:54:57;2.38;;;1.70;;
59972;SDS011;55298;-36.624;-64.282;2022-11-20T14:57:26;2.45;;;1.60;;
59972;SDS011;55298;-36.624;-64.282;2022-11-20T15:00:08;3.53;;;1.80;;
59972;SDS011;55298;-36.624;-64.282;2022-11-20T15:02:46;1.70;;;1.58;;
59972;SDS011;55298;-36.624;-64.282;2022-11-20T15:05:15;2.65;;;2.22;;
59972;SDS011;55298;-36.624;-64.282;2022-11-20T15:07:46;3.60;;;1.85;;
59972;SDS011;55298;-36.624;-64.282;2022-11-20T15:10:21;3.63;;;1.60;;
59972;SDS011;55298;-36.624;-64.282;2022-11-20T15:12:54;2.58;;;1.58;;
59972;SDS011;55298;-36.624;-64.282;2022-11-20T15:15:34;3.90;;;1.80;;
59972;SDS011;55298;-36.624;-64.282;2022-11-20T15:18:16;7.35;;;3.08;;
59972;SDS011;55298;-36.624;-64.282;2022-11-20T15:20:46;6.03;;;2.63;;
59972;SDS011;55298;-36.624;-64.282;2022-11-20T15:23:15;3.05;;;1.90;;
59972;SDS011;55298;-36.624;-64.282;2022-11-20T15:25:45;3.80;;;2.10;;
59972;SDS011;55298;-36.624;-64.282;2022-11-20T15:28:16;3.17;;;1.88;;
59972;SDS011;55298;-36.624;-64.282;2022-11-20T15:30:48;2.42;;;1.50;;
59972;SDS011;55298;-36.624;-64.282;2022-11-20T15:33:16;2.33;;;1.70;;
59972;SDS011;55298;-36.624;-64.282;2022-11-20T15:35:45;2.72;;;2.20;;
59972;SDS011;55298;-36.624;-64.282;2022-11-20T15:38:13;5.65;;;2.15;;
59972;SDS011;55298;-36.624;-64.282;2022-11-20T15:40:40;3.63;;;2.10;;
59972;SDS011;55298;-36.624;-64.282;2022-11-20T15:43:08;3.95;;;2.65;;
59972;SDS011;55298;-36.624;-64.282;2022-11-20T15:45:38;4.32;;;1.90;;
59972;SDS011;55298;-36.624;-64.282;2022-11-20T15:48:15;2.65;;;1.80;;
59972;SDS011;55298;-36.624;-64.282;2022-11-20T15:51:02;1.92;;;1.50;;